Terminal Aerodrome Forecast
Issued by NWS Sterling, VA

Current Version | Previous Version | Graphics & Text | Print | Product List | Glossary On
Versions: 1 2 3 4 5 6 7 8 9 10 11 12 13 14 15 16 17 18 19 20 21 22 23 24
873
FTUS41 KLWX 181436 AAC
TAFDCA
TAF AMD
KDCA 181436Z 1815/1912 31010G17KT P6SM BKN050
     FM190000 32007KT P6SM FEW030 SCT120
     FM190400 32006KT P6SM SCT025 BKN100
     FM190600 32005KT P6SM FEW040 SCT090
     FM190800 32004KT P6SM SCT040 BKN080=

USA.gov is the U.S. government's official web portal to all federal, state and local government web resources and services.